FAPR

Pretoria Airport

Pretoria, South Africa
METAR FAPR 160759Z 35005KT 9999 FEW020 21/14 Q1024
Observed Flight Rules
Dec-16 @ 07:59 UTC (3 hours ago) Visual Flight Rules
Wind Visibility Clouds
350° at 5 knots 10,000+ meters
  • Few at 2,000' AGL
Temperatures Readings
Current 21°C / 70°F
Dewpoint 14°C / 57°F
Humidity 64%
Altimeter 30.24" Hg
Pressure 1024 hPa
Elevation 1322
METAR FAPR 160759Z 35005KT 9999 FEW020 21/14 Q1024
Observed Flight Rules
Dec-16 @ 07:59 UTC
(3 hours ago)
VFR
Wind Visibility
350° at 5 knots 10,000+ meters
Clouds
  • Few at 2,000' AGL
Temperature Dewpoint
21°C / 70°F 14°C / 57°F
Humidity Altimeter Pressure
64% 30.24" Hg 1024 hPa